RJCW/WKJ METAR and TAF weather

Enter ICAO airport designator
Station Type Date Time Source
RJCW METAR 2024/04/17 09:00 UTC NOAA

RJCW 170900Z 08007KT 9999 FEW050 SCT150 BKN/// 13/05 Q1009


Station Type Date Time Source
RJCW Decoded METAR 2024/04/17 09:00 UTC NOAA

Wakkanai Airport, Japan (RJCW) 45-24N 141-48E 11M
Apr 17, 2024 - 05:00 AM EDT / 2024.04.17 0900 UTC
Wind: from the E (080 degrees) at 8 MPH (7 KT):0
Visibility: greater than 7 mile(s):0
Sky conditions: mostly cloudy
Temperature: 55 F (13 C)
Dew Point: 41 F (5 C)
Relative Humidity: 58%
Pressure (altimeter): 29.80 in. Hg (1009 hPa)
ob: RJCW 170900Z 08007KT 9999 FEW050 SCT150 BKN/// 13/05 Q1009
cycle: 9

Station Type Date Time Source
RJCW TAF UTC NOAA

Error!

Example: see airport list